Flight Track Log - Related Links

Times and Time Zones

All times are in EDT time to prevent confusion due to time zone crossing. See the ASQ5941 flight status page for this flight to view local times or setup timezone preferences in your user account.

Time Position Orientation Groundspeed Altitude Reporting Facility
EDT Latitude Longitude Course Direction KTS MPH feet Rate Location/Type
Sat 03:23:22 PM 42.0167 -87.9167 73° East 185 213 2,600  Level Chicago TRACON
Sat 03:24:22 PM 42.0667 -87.8667 37° Northeast 225 259 4,500 1,723 Climbing Chicago TRACON
Sat 03:26:00 PM 41.9803 -87.2919 80° East  Level Estimated
Sat 03:26:37 PM 42.1678 -87.7169 48° Northeast 275 316 8,200  Level Chicago Center
Sat 03:27:00 PM 41.9794 -87.1382 90° East  Level Estimated
Sat 03:27:39 PM 42.1606 -87.6108 95° East 283 326 10,200  Level Chicago Center
Sat 03:28:00 PM 42.0131 -86.9913 73° East  Level FlightAware Approximate
Sat 03:28:41 PM 42.1511 -87.4972 96° East 302 348 11,800  Level Chicago Center
Sat 03:29:42 PM 42.1403 -87.3722 97° East 330 380 12,800 927 Climbing Chicago Center
Sat 03:30:44 PM 42.1281 -87.2372 97° East 359 413 13,700 919 Climbing Chicago Center
Sat 03:31:46 PM 42.1156 -87.0961 97° East 377 434 14,700 1,024 Climbing Chicago Center
Sat 03:32:47 PM 42.1167 -86.9511 89° East 389 448 15,800 1,220 Climbing Chicago Center
Sat 03:33:49 PM 42.1236 -86.7778 87° East 388 447 17,200 1,210 Climbing Chicago Center
Sat 03:34:51 PM 42.1278 -86.6289 88° East 396 456 18,300 1,073 Climbing Chicago Center
Sat 03:35:52 PM 42.1331 -86.4794 87° East 400 460 19,400 1,073 Climbing Chicago Center
Sat 03:36:54 PM 42.1383 -86.3275 87° East 403 464 20,500 1,065 Climbing Chicago Center
Sat 03:37:56 PM 42.1425 -86.1764 88° East 404 465 21,600 1,122 Climbing Chicago Center
Sat 03:38:57 PM 42.1439 -86.0231 89° East 406 467 22,800 1,171 Climbing Chicago Center
Sat 03:39:59 PM 42.1417 -85.8519 91° East 408 470 24,000 1,065 Climbing Chicago Center
Sat 03:41:01 PM 42.1403 -85.6997 91° East 408 470 25,000 1,024 Climbing Chicago Center
Sat 03:42:02 PM 42.1397 -85.5472 90° East 409 471 26,100 1,024 Climbing Chicago Center
Sat 03:43:04 PM 42.1375 -85.3956 91° East 409 471 27,100 968 Climbing Chicago Center
Sat 03:44:06 PM 42.1361 -85.2447 91° East 407 468 28,100 878 Climbing Chicago Center
Sat 03:45:07 PM 42.1342 -85.0917 91° East 410 472 28,900 829 Climbing Chicago Center
Sat 03:46:09 PM 42.1311 -84.9061 91° East 414 476 29,800 919 Climbing Chicago Center
Sat 03:47:11 PM 42.1283 -84.7486 91° East 421 484 30,800 976 Climbing Chicago Center
Sat 03:48:12 PM 42.1253 -84.5914 91° East 422 486 31,800 927 Climbing Chicago Center
Sat 03:49:14 PM 42.1264 -84.4311 89° East 428 493 32,700 887 Climbing Chicago Center
Sat 03:50:07 PM 42.1425 -84.2911 81° East 430 495 33,500 678 Climbing Cleveland Center
Sat 03:51:09 PM 42.1606 -84.1322 81° East 430 495 34,000 242 Climbing Cleveland Center
Sat 03:52:11 PM 42.1783 -83.9672 82° East 444 511 34,000  Level Cleveland Center
Sat 03:53:13 PM 42.2000 -83.7606 82° East 465 535 34,000  Level Cleveland Center
Sat 03:54:15 PM 42.2211 -83.5836 81° East 480 552 34,000 194 Level Cleveland Center
Sat 03:55:17 PM 42.2408 -83.4097 81° East 484 557 34,400 484 Climbing Cleveland Center
Sat 03:56:19 PM 42.2553 -83.2097 84° East 476 548 35,000 290 Climbing Cleveland Center
Sat 03:57:21 PM 42.2383 -83.0353 97° East 472 543 35,000  Level Cleveland Center
Sat 03:58:23 PM 42.2208 -82.8564 97° East 480 552 35,000  Level Cleveland Center
Sat 03:59:25 PM 42.2017 -82.6758 98° East 487 560 35,000  Level Cleveland Center
Sat 04:00:27 PM 42.1833 -82.4961 98° East 486 559 35,000  Level Cleveland Center
Sat 04:01:29 PM 42.1653 -82.3153 98° East 488 562 35,000  Level Cleveland Center
Sat 04:02:31 PM 42.1444 -82.1144 98° East 490 564 35,000  Level Cleveland Center
Sat 04:03:33 PM 42.1231 -81.9319 99° East 489 563 35,000  Level Cleveland Center
Sat 04:04:35 PM 42.1042 -81.7481 98° East 490 564 35,000  Level Cleveland Center
Sat 04:05:37 PM 42.0839 -81.5653 98° East 489 563 35,000  Level Cleveland Center
Sat 04:06:39 PM 42.0597 -81.3494 99° East 494 568 35,000  Level Cleveland Center
Sat 04:07:41 PM 42.0389 -81.1669 99° East 490 564 35,000  Level Cleveland Center
Sat 04:08:42 PM 42.0181 -80.9825 99° East 493 567 35,000  Level Cleveland Center
Sat 04:09:44 PM 41.9992 -80.7986 98° East 492 566 35,000  Level Cleveland Center
Sat 04:10:46 PM 41.9856 -80.6106 95° East 498 573 35,000  Level Cleveland Center
Sat 04:11:48 PM 41.9725 -80.4242 95° East 499 574 35,000 -145 Level Cleveland Center
Sat 04:12:50 PM 41.9581 -80.2386 96° East 496 571 34,700 -629 Descending Cleveland Center
Sat 04:13:52 PM 41.9425 -80.0472 96° East 508 585 33,700 -823 Descending Cleveland Center
Sat 04:14:54 PM 41.9261 -79.8586 97° East 504 580 33,000 -341 Descending Cleveland Center
Sat 04:15:55 PM 41.9078 -79.6364 96° East 507 583 33,000  Level Cleveland Center
Sat 04:16:57 PM 41.8928 -79.4592 96° East 506 582 33,000 -387 Level Cleveland Center
Sat 04:17:59 PM 41.8744 -79.2514 97° East 503 579 32,200 -823 Descending Cleveland Center
Sat 04:19:01 PM 41.8572 -79.0619 97° East 509 586 31,300 -871 Descending Cleveland Center
Sat 04:20:03 PM 41.8425 -78.8983 97° East 508 585 30,400 -1,220 Descending Cleveland Center
Sat 04:21:04 PM 41.8217 -78.6772 97° East 502 578 28,800 -1,756 Descending Cleveland Center
Sat 04:22:06 PM 41.8039 -78.4858 97° East 510 587 26,800 -1,935 Descending Cleveland Center
Sat 04:23:08 PM 41.7861 -78.3025 97° East 505 581 24,800 -1,548 Descending Cleveland Center
Sat 04:24:10 PM 41.7683 -78.1300 98° East 484 557 23,600 -878 Descending Cleveland Center
Sat 04:25:11 PM 41.7536 -77.9644 97° East 459 528 23,000 -336 Descending Cleveland Center
Sat 04:25:57 PM 41.7375 -77.8150 98° East 475 547 23,000  Level New York Center
Sat 04:26:57 PM 41.7206 -77.6408 97° East 475 547 23,000  Level New York Center
Sat 04:27:57 PM 41.7022 -77.4861 99° East 468 539 23,000  Level New York Center
Sat 04:28:57 PM 41.6831 -77.3092 98° East 468 539 23,000 -900 Level New York Center
Sat 04:29:57 PM 41.6650 -77.1408 98° East 468 539 21,200 -1,800 Descending New York Center
Sat 04:30:57 PM 41.6486 -76.9783 98° East 448 516 19,400 -2,000 Descending New York Center
Sat 04:31:57 PM 41.6317 -76.8239 98° East 435 501 17,200 -2,250 Descending New York Center
Sat 04:32:57 PM 41.6111 -76.6500 99° East 430 495 14,900 -2,100 Descending New York Center
Sat 04:33:57 PM 41.5956 -76.5017 98° East 419 482 13,000 -1,800 Descending New York Center
Sat 04:34:57 PM 41.5775 -76.3586 100° East 403 464 11,300 -1,400 Descending New York Center
Sat 04:35:57 PM 41.5661 -76.2442 98° East 361 415 10,200 -1,400 Descending New York Center
Sat 04:36:57 PM 41.5481 -76.1344 102° East 314 361 8,500 -1,950 Descending New York Center
Sat 04:37:57 PM 41.5197 -76.0242 109° East 287 330 6,300 -1,750 Descending New York Center
Sat 04:38:57 PM 41.5097 -75.9181 97° East 287 330 5,000 -1,100 Descending New York Center
Sat 04:39:57 PM 41.4997 -75.8147 97° East 282 325 4,100 -500 Descending New York Center
Sat 04:40:57 PM 41.4806 -75.7275 106° East 263 303 4,000 -200 Descending New York Center
Sat 04:41:57 PM 41.4519 -75.6644 121° Southeast 207 238 3,700 -550 Descending New York Center
Sat 04:42:57 PM 41.4017 -75.6664 182° South 169 194 2,900 -1,050 Descending New York Center
Sat 04:43:57 PM 41.3714 -75.6947 215° Southwest 138 159 1,600 -700 Descending New York Center
Sat 04:44:57 PM 41.3383 -75.6922 177° South 133 153 1,500 -100 Descending New York Center

Login

Don't have an account? Register now (free) for customized features, flight alerts, and more!